Weather at Washington Dulles International Airport

Public forecast

Using degrees Fahrenheit for public forecast. Weather courtesy of forecast.io.

Current aviation weather report (METAR) for Washington Dulles International Airport

2024/04/13 12:52 (retrieved 9 minutes ago)

KIAD 131252Z 29015G29KT 10SM SCT065 BKN150 BKN200 13/01 A2980 RMK AO2 PK WND 27032/1213 SLP092 T01330011

Aviation forecast (TAF) for Washington Dulles International Airport

2024/04/13 12:33 (retrieved 28 minutes ago)

TAF KIAD 131131Z 1312/1418 28013G24KT P6SM FEW060 OVC150 FM131400 29023G40KT P6SM BKN150 FM131900 30022G37KT P6SM FEW250 FM132200 30017G26KT P6SM SKC FM140000 29010KT P6SM SKC FM140500 25006KT P6SM SKC FM141500 20012G19KT P6SM SCT250